sensor_id;sensor_type;location;lat;lon;timestamp;P1;durP1;ratioP1;P2;durP2;ratioP2
31347;SDS011;21711;49.708;18.568;2022-10-10T00:01:24;5.28;;;3.05;;
31347;SDS011;21711;49.708;18.568;2022-10-10T00:03:56;9.70;;;2.75;;
31347;SDS011;21711;49.708;18.568;2022-10-10T00:06:24;4.53;;;2.35;;
31347;SDS011;21711;49.708;18.568;2022-10-10T00:08:58;7.13;;;2.67;;
31347;SDS011;21711;49.708;18.568;2022-10-10T00:11:26;9.93;;;2.80;;
31347;SDS011;21711;49.708;18.568;2022-10-10T00:13:54;11.90;;;2.83;;
31347;SDS011;21711;49.708;18.568;2022-10-10T00:16:21;5.13;;;2.88;;
31347;SDS011;21711;49.708;18.568;2022-10-10T00:18:48;7.78;;;2.70;;
31347;SDS011;21711;49.708;18.568;2022-10-10T00:21:20;3.67;;;2.47;;
31347;SDS011;21711;49.708;18.568;2022-10-10T00:23:47;6.97;;;2.42;;
31347;SDS011;21711;49.708;18.568;2022-10-10T00:26:15;8.48;;;3.65;;
31347;SDS011;21711;49.708;18.568;2022-10-10T00:28:47;7.43;;;2.60;;
31347;SDS011;21711;49.708;18.568;2022-10-10T00:31:14;6.15;;;3.15;;
31347;SDS011;21711;49.708;18.568;2022-10-10T00:33:42;7.03;;;2.80;;
31347;SDS011;21711;49.708;18.568;2022-10-10T00:36:10;5.35;;;2.72;;
31347;SDS011;21711;49.708;18.568;2022-10-10T00:38:37;5.72;;;2.70;;
31347;SDS011;21711;49.708;18.568;2022-10-10T00:41:04;9.43;;;2.40;;
31347;SDS011;21711;49.708;18.568;2022-10-10T00:43:33;5.40;;;2.65;;
31347;SDS011;21711;49.708;18.568;2022-10-10T00:46:00;6.60;;;2.88;;
31347;SDS011;21711;49.708;18.568;2022-10-10T00:48:28;6.85;;;2.22;;
31347;SDS011;21711;49.708;18.568;2022-10-10T00:53:40;4.80;;;2.65;;
31347;SDS011;21711;49.708;18.568;2022-10-10T00:56:13;6.43;;;2.55;;
31347;SDS011;21711;49.708;18.568;2022-10-10T00:58:47;6.28;;;2.75;;
31347;SDS011;21711;49.708;18.568;2022-10-10T01:01:19;4.47;;;2.22;;
31347;SDS011;21711;49.708;18.568;2022-10-10T01:03:46;9.60;;;3.70;;
31347;SDS011;21711;49.708;18.568;2022-10-10T01:06:13;6.38;;;2.88;;
31347;SDS011;21711;49.708;18.568;2022-10-10T01:08:41;9.38;;;3.17;;
31347;SDS011;21711;49.708;18.568;2022-10-10T01:14:02;9.38;;;3.72;;
31347;SDS011;21711;49.708;18.568;2022-10-10T01:20:00;5.88;;;2.63;;
31347;SDS011;21711;49.708;18.568;2022-10-10T01:25:31;6.72;;;2.80;;
31347;SDS011;21711;49.708;18.568;2022-10-10T01:31:03;16.75;;;4.25;;
31347;SDS011;21711;49.708;18.568;2022-10-10T01:34:37;10.27;;;3.58;;
31347;SDS011;21711;49.708;18.568;2022-10-10T01:42:30;5.68;;;2.97;;
31347;SDS011;21711;49.708;18.568;2022-10-10T01:45:17;5.70;;;3.00;;
31347;SDS011;21711;49.708;18.568;2022-10-10T01:47:46;9.32;;;3.08;;
31347;SDS011;21711;49.708;18.568;2022-10-10T01:50:15;12.65;;;3.85;;
31347;SDS011;21711;49.708;18.568;2022-10-10T02:02:01;7.47;;;3.38;;
31347;SDS011;21711;49.708;18.568;2022-10-10T02:07:16;7.50;;;2.92;;
31347;SDS011;21711;49.708;18.568;2022-10-10T02:10:07;7.50;;;3.42;;
31347;SDS011;21711;49.708;18.568;2022-10-10T02:12:36;7.32;;;3.20;;
31347;SDS011;21711;49.708;18.568;2022-10-10T02:15:09;6.57;;;3.70;;
31347;SDS011;21711;49.708;18.568;2022-10-10T02:17:42;6.93;;;3.25;;
31347;SDS011;21711;49.708;18.568;2022-10-10T02:22:44;10.65;;;3.83;;
31347;SDS011;21711;49.708;18.568;2022-10-10T02:25:12;12.57;;;3.83;;
31347;SDS011;21711;49.708;18.568;2022-10-10T02:28:42;6.45;;;3.33;;
31347;SDS011;21711;49.708;18.568;2022-10-10T02:30:49;7.53;;;4.00;;
31347;SDS011;21711;49.708;18.568;2022-10-10T02:33:26;4.95;;;2.67;;
31347;SDS011;21711;49.708;18.568;2022-10-10T02:36:16;7.32;;;3.50;;
31347;SDS011;21711;49.708;18.568;2022-10-10T02:38:45;11.27;;;4.15;;
31347;SDS011;21711;49.708;18.568;2022-10-10T02:41:16;8.20;;;4.67;;
31347;SDS011;21711;49.708;18.568;2022-10-10T02:43:45;6.72;;;3.88;;
31347;SDS011;21711;49.708;18.568;2022-10-10T02:46:15;9.30;;;3.97;;
31347;SDS011;21711;49.708;18.568;2022-10-10T02:48:43;9.23;;;3.45;;
31347;SDS011;21711;49.708;18.568;2022-10-10T02:51:11;7.82;;;3.65;;
31347;SDS011;21711;49.708;18.568;2022-10-10T02:53:41;9.60;;;4.85;;
31347;SDS011;21711;49.708;18.568;2022-10-10T02:56:08;7.88;;;4.70;;
31347;SDS011;21711;49.708;18.568;2022-10-10T02:58:35;8.13;;;3.65;;
31347;SDS011;21711;49.708;18.568;2022-10-10T03:01:03;11.18;;;4.82;;
31347;SDS011;21711;49.708;18.568;2022-10-10T03:03:30;8.63;;;4.10;;
31347;SDS011;21711;49.708;18.568;2022-10-10T03:05:57;6.55;;;3.72;;
31347;SDS011;21711;49.708;18.568;2022-10-10T03:08:25;9.15;;;4.45;;
31347;SDS011;21711;49.708;18.568;2022-10-10T03:10:56;7.97;;;4.00;;
31347;SDS011;21711;49.708;18.568;2022-10-10T03:13:25;8.38;;;3.80;;
31347;SDS011;21711;49.708;18.568;2022-10-10T03:15:53;6.20;;;3.58;;
31347;SDS011;21711;49.708;18.568;2022-10-10T03:18:20;7.68;;;4.25;;
31347;SDS011;21711;49.708;18.568;2022-10-10T03:20:52;6.85;;;3.85;;
31347;SDS011;21711;49.708;18.568;2022-10-10T03:23:22;9.45;;;3.95;;
31347;SDS011;21711;49.708;18.568;2022-10-10T03:25:50;7.68;;;3.88;;
31347;SDS011;21711;49.708;18.568;2022-10-10T03:28:18;8.13;;;4.22;;
31347;SDS011;21711;49.708;18.568;2022-10-10T03:30:46;7.95;;;4.47;;
31347;SDS011;21711;49.708;18.568;2022-10-10T03:33:14;8.25;;;4.40;;
31347;SDS011;21711;49.708;18.568;2022-10-10T03:35:41;8.13;;;4.32;;
31347;SDS011;21711;49.708;18.568;2022-10-10T03:38:09;9.68;;;4.72;;
31347;SDS011;21711;49.708;18.568;2022-10-10T03:40:39;8.95;;;4.53;;
31347;SDS011;21711;49.708;18.568;2022-10-10T03:43:08;10.40;;;4.07;;
31347;SDS011;21711;49.708;18.568;2022-10-10T03:45:40;8.25;;;4.25;;
31347;SDS011;21711;49.708;18.568;2022-10-10T03:48:09;7.32;;;4.07;;
31347;SDS011;21711;49.708;18.568;2022-10-10T03:50:37;6.05;;;3.70;;
31347;SDS011;21711;49.708;18.568;2022-10-10T03:53:05;7.93;;;4.32;;
31347;SDS011;21711;49.708;18.568;2022-10-10T03:55:33;8.43;;;4.05;;
31347;SDS011;21711;49.708;18.568;2022-10-10T03:58:00;8.93;;;4.30;;
31347;SDS011;21711;49.708;18.568;2022-10-10T04:00:27;7.05;;;3.75;;
31347;SDS011;21711;49.708;18.568;2022-10-10T04:02:54;10.75;;;5.35;;
31347;SDS011;21711;49.708;18.568;2022-10-10T04:05:22;6.60;;;4.20;;
31347;SDS011;21711;49.708;18.568;2022-10-10T04:07:49;9.80;;;4.25;;
31347;SDS011;21711;49.708;18.568;2022-10-10T04:10:16;7.07;;;3.83;;
31347;SDS011;21711;49.708;18.568;2022-10-10T04:12:43;9.80;;;4.57;;
31347;SDS011;21711;49.708;18.568;2022-10-10T04:15:11;12.15;;;4.68;;
31347;SDS011;21711;49.708;18.568;2022-10-10T04:17:38;11.20;;;4.47;;
31347;SDS011;21711;49.708;18.568;2022-10-10T04:20:05;10.48;;;5.70;;
31347;SDS011;21711;49.708;18.568;2022-10-10T04:22:33;10.00;;;5.05;;
31347;SDS011;21711;49.708;18.568;2022-10-10T04:25:00;6.97;;;4.40;;
31347;SDS011;21711;49.708;18.568;2022-10-10T04:27:27;10.02;;;4.03;;
31347;SDS011;21711;49.708;18.568;2022-10-10T04:29:55;7.82;;;4.10;;
31347;SDS011;21711;49.708;18.568;2022-10-10T04:32:22;16.63;;;5.38;;
31347;SDS011;21711;49.708;18.568;2022-10-10T04:34:49;9.63;;;4.85;;
31347;SDS011;21711;49.708;18.568;2022-10-10T04:37:17;11.18;;;4.88;;
31347;SDS011;21711;49.708;18.568;2022-10-10T04:39:44;11.32;;;4.47;;
31347;SDS011;21711;49.708;18.568;2022-10-10T04:42:11;8.05;;;4.55;;
31347;SDS011;21711;49.708;18.568;2022-10-10T04:44:38;8.77;;;4.50;;
31347;SDS011;21711;49.708;18.568;2022-10-10T04:47:06;8.80;;;4.07;;
31347;SDS011;21711;49.708;18.568;2022-10-10T04:49:33;9.20;;;4.53;;
31347;SDS011;21711;49.708;18.568;2022-10-10T04:52:00;8.02;;;4.72;;
31347;SDS011;21711;49.708;18.568;2022-10-10T04:54:27;11.10;;;4.32;;
31347;SDS011;21711;49.708;18.568;2022-10-10T04:56:55;7.68;;;3.97;;
31347;SDS011;21711;49.708;18.568;2022-10-10T04:59:22;13.77;;;5.72;;
31347;SDS011;21711;49.708;18.568;2022-10-10T05:01:49;7.18;;;4.53;;
31347;SDS011;21711;49.708;18.568;2022-10-10T05:04:17;7.53;;;4.10;;
31347;SDS011;21711;49.708;18.568;2022-10-10T05:06:44;15.02;;;5.10;;
31347;SDS011;21711;49.708;18.568;2022-10-10T05:09:11;9.88;;;4.60;;
31347;SDS011;21711;49.708;18.568;2022-10-10T05:11:39;6.75;;;4.68;;
31347;SDS011;21711;49.708;18.568;2022-10-10T05:14:06;9.95;;;4.72;;
31347;SDS011;21711;49.708;18.568;2022-10-10T05:16:34;8.32;;;4.10;;
31347;SDS011;21711;49.708;18.568;2022-10-10T05:19:01;9.32;;;4.63;;
31347;SDS011;21711;49.708;18.568;2022-10-10T05:21:28;6.95;;;4.20;;
31347;SDS011;21711;49.708;18.568;2022-10-10T05:23:57;6.07;;;3.90;;
31347;SDS011;21711;49.708;18.568;2022-10-10T05:26:24;8.77;;;3.97;;
31347;SDS011;21711;49.708;18.568;2022-10-10T05:28:52;10.52;;;4.00;;
31347;SDS011;21711;49.708;18.568;2022-10-10T05:31:20;8.50;;;3.75;;
31347;SDS011;21711;49.708;18.568;2022-10-10T05:33:47;9.23;;;4.35;;
31347;SDS011;21711;49.708;18.568;2022-10-10T05:36:14;10.95;;;3.92;;
31347;SDS011;21711;49.708;18.568;2022-10-10T05:38:42;10.18;;;4.05;;
31347;SDS011;21711;49.708;18.568;2022-10-10T05:41:10;9.30;;;3.33;;
31347;SDS011;21711;49.708;18.568;2022-10-10T05:43:38;7.05;;;3.72;;
31347;SDS011;21711;49.708;18.568;2022-10-10T05:46:05;8.30;;;3.17;;
31347;SDS011;21711;49.708;18.568;2022-10-10T05:48:32;9.63;;;3.33;;
31347;SDS011;21711;49.708;18.568;2022-10-10T05:51:00;7.53;;;3.83;;
31347;SDS011;21711;49.708;18.568;2022-10-10T05:53:27;10.00;;;3.03;;
31347;SDS011;21711;49.708;18.568;2022-10-10T05:55:56;5.53;;;3.28;;
31347;SDS011;21711;49.708;18.568;2022-10-10T05:58:23;6.10;;;2.72;;
31347;SDS011;21711;49.708;18.568;2022-10-10T06:00:52;5.82;;;3.45;;
31347;SDS011;21711;49.708;18.568;2022-10-10T06:03:19;4.25;;;2.65;;
31347;SDS011;21711;49.708;18.568;2022-10-10T06:05:49;6.78;;;2.80;;
31347;SDS011;21711;49.708;18.568;2022-10-10T06:08:17;6.47;;;3.03;;
31347;SDS011;21711;49.708;18.568;2022-10-10T06:10:44;6.47;;;2.42;;
31347;SDS011;21711;49.708;18.568;2022-10-10T06:13:13;5.32;;;2.80;;
31347;SDS011;21711;49.708;18.568;2022-10-10T06:15:49;5.20;;;3.00;;
31347;SDS011;21711;49.708;18.568;2022-10-10T06:18:17;10.20;;;2.80;;
31347;SDS011;21711;49.708;18.568;2022-10-10T06:20:44;4.97;;;2.60;;
31347;SDS011;21711;49.708;18.568;2022-10-10T06:23:12;3.28;;;2.20;;
31347;SDS011;21711;49.708;18.568;2022-10-10T06:25:39;4.97;;;2.70;;
31347;SDS011;21711;49.708;18.568;2022-10-10T06:28:07;3.75;;;2.50;;
31347;SDS011;21711;49.708;18.568;2022-10-10T06:30:42;5.95;;;2.95;;
31347;SDS011;21711;49.708;18.568;2022-10-10T06:33:10;7.93;;;3.05;;
31347;SDS011;21711;49.708;18.568;2022-10-10T06:35:41;9.43;;;3.05;;
31347;SDS011;21711;49.708;18.568;2022-10-10T06:38:10;5.78;;;3.10;;
31347;SDS011;21711;49.708;18.568;2022-10-10T06:40:39;5.70;;;3.00;;
31347;SDS011;21711;49.708;18.568;2022-10-10T06:43:06;5.43;;;2.80;;
31347;SDS011;21711;49.708;18.568;2022-10-10T06:45:38;6.53;;;3.40;;
31347;SDS011;21711;49.708;18.568;2022-10-10T06:48:08;7.00;;;3.13;;
31347;SDS011;21711;49.708;18.568;2022-10-10T06:50:36;6.75;;;3.20;;
31347;SDS011;21711;49.708;18.568;2022-10-10T06:53:04;5.07;;;2.95;;
31347;SDS011;21711;49.708;18.568;2022-10-10T06:55:32;4.93;;;3.03;;
31347;SDS011;21711;49.708;18.568;2022-10-10T06:57:59;4.38;;;2.95;;
31347;SDS011;21711;49.708;18.568;2022-10-10T07:00:26;6.28;;;3.53;;
31347;SDS011;21711;49.708;18.568;2022-10-10T07:02:54;6.00;;;3.10;;
31347;SDS011;21711;49.708;18.568;2022-10-10T07:05:21;5.05;;;3.15;;
31347;SDS011;21711;49.708;18.568;2022-10-10T07:07:50;7.00;;;2.97;;
31347;SDS011;21711;49.708;18.568;2022-10-10T07:10:17;4.10;;;2.75;;
31347;SDS011;21711;49.708;18.568;2022-10-10T07:12:45;5.93;;;3.40;;
31347;SDS011;21711;49.708;18.568;2022-10-10T07:15:12;4.43;;;2.80;;
31347;SDS011;21711;49.708;18.568;2022-10-10T07:17:39;8.25;;;2.75;;
31347;SDS011;21711;49.708;18.568;2022-10-10T07:20:07;5.13;;;3.13;;
31347;SDS011;21711;49.708;18.568;2022-10-10T07:22:35;9.23;;;3.47;;
31347;SDS011;21711;49.708;18.568;2022-10-10T07:25:02;5.03;;;3.10;;
31347;SDS011;21711;49.708;18.568;2022-10-10T07:27:30;4.72;;;2.90;;
31347;SDS011;21711;49.708;18.568;2022-10-10T07:29:57;6.10;;;3.42;;
31347;SDS011;21711;49.708;18.568;2022-10-10T07:32:24;3.72;;;2.70;;
31347;SDS011;21711;49.708;18.568;2022-10-10T07:34:51;4.45;;;3.00;;
31347;SDS011;21711;49.708;18.568;2022-10-10T07:37:19;6.28;;;3.22;;
31347;SDS011;21711;49.708;18.568;2022-10-10T07:39:46;7.22;;;3.58;;
31347;SDS011;21711;49.708;18.568;2022-10-10T07:42:13;7.70;;;3.67;;
31347;SDS011;21711;49.708;18.568;2022-10-10T07:44:41;7.75;;;4.18;;
31347;SDS011;21711;49.708;18.568;2022-10-10T07:47:08;6.43;;;3.80;;
31347;SDS011;21711;49.708;18.568;2022-10-10T07:49:35;6.75;;;4.90;;
31347;SDS011;21711;49.708;18.568;2022-10-10T07:52:03;7.35;;;4.40;;
31347;SDS011;21711;49.708;18.568;2022-10-10T07:54:30;8.18;;;4.07;;
31347;SDS011;21711;49.708;18.568;2022-10-10T07:56:58;7.68;;;4.28;;
31347;SDS011;21711;49.708;18.568;2022-10-10T07:59:25;5.57;;;4.25;;
31347;SDS011;21711;49.708;18.568;2022-10-10T08:01:52;6.75;;;4.32;;
31347;SDS011;21711;49.708;18.568;2022-10-10T08:04:20;6.63;;;4.68;;
31347;SDS011;21711;49.708;18.568;2022-10-10T08:06:47;9.82;;;4.10;;
31347;SDS011;21711;49.708;18.568;2022-10-10T08:09:14;6.85;;;4.43;;
31347;SDS011;21711;49.708;18.568;2022-10-10T08:11:42;8.55;;;4.55;;
31347;SDS011;21711;49.708;18.568;2022-10-10T08:14:09;8.55;;;4.90;;
31347;SDS011;21711;49.708;18.568;2022-10-10T08:16:37;7.68;;;3.88;;
31347;SDS011;21711;49.708;18.568;2022-10-10T08:19:04;5.72;;;4.10;;
31347;SDS011;21711;49.708;18.568;2022-10-10T08:21:31;7.20;;;3.95;;
31347;SDS011;21711;49.708;18.568;2022-10-10T08:24:01;6.65;;;4.25;;
31347;SDS011;21711;49.708;18.568;2022-10-10T08:26:28;6.53;;;3.95;;
31347;SDS011;21711;49.708;18.568;2022-10-10T08:28:56;8.05;;;4.43;;
31347;SDS011;21711;49.708;18.568;2022-10-10T08:31:23;8.40;;;4.32;;
31347;SDS011;21711;49.708;18.568;2022-10-10T08:33:50;6.03;;;4.00;;
31347;SDS011;21711;49.708;18.568;2022-10-10T08:36:19;5.53;;;4.13;;
31347;SDS011;21711;49.708;18.568;2022-10-10T08:38:49;6.38;;;4.20;;
31347;SDS011;21711;49.708;18.568;2022-10-10T08:44:15;8.98;;;4.50;;
31347;SDS011;21711;49.708;18.568;2022-10-10T08:49:37;6.75;;;4.22;;
31347;SDS011;21711;49.708;18.568;2022-10-10T08:54:55;8.15;;;4.28;;
31347;SDS011;21711;49.708;18.568;2022-10-10T08:57:34;6.53;;;4.32;;
31347;SDS011;21711;49.708;18.568;2022-10-10T09:00:38;5.03;;;4.00;;
31347;SDS011;21711;49.708;18.568;2022-10-10T09:09:00;6.03;;;4.35;;
31347;SDS011;21711;49.708;18.568;2022-10-10T09:12:12;8.30;;;4.55;;
31347;SDS011;21711;49.708;18.568;2022-10-10T09:15:19;9.38;;;4.13;;
31347;SDS011;21711;49.708;18.568;2022-10-10T09:21:23;5.75;;;4.25;;
31347;SDS011;21711;49.708;18.568;2022-10-10T09:24:09;5.80;;;4.45;;
31347;SDS011;21711;49.708;18.568;2022-10-10T09:27:04;8.57;;;4.25;;
31347;SDS011;21711;49.708;18.568;2022-10-10T09:29:47;4.80;;;3.88;;
31347;SDS011;21711;49.708;18.568;2022-10-10T09:32:40;4.82;;;4.05;;
31347;SDS011;21711;49.708;18.568;2022-10-10T09:35:15;10.70;;;4.60;;
31347;SDS011;21711;49.708;18.568;2022-10-10T09:38:00;6.32;;;4.50;;
31347;SDS011;21711;49.708;18.568;2022-10-10T09:40:55;6.45;;;4.85;;
31347;SDS011;21711;49.708;18.568;2022-10-10T09:43:33;5.43;;;4.47;;
31347;SDS011;21711;49.708;18.568;2022-10-10T09:46:01;9.57;;;4.88;;
31347;SDS011;21711;49.708;18.568;2022-10-10T09:48:30;5.78;;;4.47;;
31347;SDS011;21711;49.708;18.568;2022-10-10T09:51:12;6.78;;;4.90;;
31347;SDS011;21711;49.708;18.568;2022-10-10T09:53:43;7.28;;;5.07;;
31347;SDS011;21711;49.708;18.568;2022-10-10T09:56:23;11.38;;;5.40;;
31347;SDS011;21711;49.708;18.568;2022-10-10T09:58:59;7.95;;;5.00;;
31347;SDS011;21711;49.708;18.568;2022-10-10T10:01:27;8.43;;;5.05;;
31347;SDS011;21711;49.708;18.568;2022-10-10T10:07:02;9.45;;;4.20;;
31347;SDS011;21711;49.708;18.568;2022-10-10T10:10:10;7.15;;;4.45;;
31347;SDS011;21711;49.708;18.568;2022-10-10T10:12:49;4.85;;;4.35;;
31347;SDS011;21711;49.708;18.568;2022-10-10T10:15:24;7.03;;;4.50;;
31347;SDS011;21711;49.708;18.568;2022-10-10T10:18:08;7.47;;;4.05;;
31347;SDS011;21711;49.708;18.568;2022-10-10T10:20:52;7.20;;;4.22;;
31347;SDS011;21711;49.708;18.568;2022-10-10T10:23:32;8.20;;;4.95;;
31347;SDS011;21711;49.708;18.568;2022-10-10T10:26:15;5.85;;;4.30;;
31347;SDS011;21711;49.708;18.568;2022-10-10T10:28:56;10.60;;;4.07;;
31347;SDS011;21711;49.708;18.568;2022-10-10T10:49:21;7.30;;;4.57;;
31347;SDS011;21711;49.708;18.568;2022-10-10T10:52:23;5.30;;;4.65;;
31347;SDS011;21711;49.708;18.568;2022-10-10T10:55:13;9.88;;;4.32;;
31347;SDS011;21711;49.708;18.568;2022-10-10T11:17:41;5.05;;;4.38;;
31347;SDS011;21711;49.708;18.568;2022-10-10T11:20:05;4.88;;;4.30;;
31347;SDS011;21711;49.708;18.568;2022-10-10T11:23:06;4.97;;;4.03;;
31347;SDS011;21711;49.708;18.568;2022-10-10T11:26:02;6.00;;;4.38;;
31347;SDS011;21711;49.708;18.568;2022-10-10T11:31:16;6.05;;;4.32;;
31347;SDS011;21711;49.708;18.568;2022-10-10T11:34:13;8.02;;;4.47;;
31347;SDS011;21711;49.708;18.568;2022-10-10T11:36:55;6.65;;;4.35;;
31347;SDS011;21711;49.708;18.568;2022-10-10T11:39:55;6.40;;;4.00;;
31347;SDS011;21711;49.708;18.568;2022-10-10T11:42:29;5.70;;;4.57;;
31347;SDS011;21711;49.708;18.568;2022-10-10T11:45:14;7.72;;;5.15;;
31347;SDS011;21711;49.708;18.568;2022-10-10T11:48:53;9.55;;;4.25;;
31347;SDS011;21711;49.708;18.568;2022-10-10T11:50:52;6.03;;;4.20;;
31347;SDS011;21711;49.708;18.568;2022-10-10T11:53:48;11.80;;;4.10;;
31347;SDS011;21711;49.708;18.568;2022-10-10T11:56:23;10.60;;;6.47;;
31347;SDS011;21711;49.708;18.568;2022-10-10T12:01:49;6.70;;;5.18;;
31347;SDS011;21711;49.708;18.568;2022-10-10T12:04:20;5.40;;;4.90;;
31347;SDS011;21711;49.708;18.568;2022-10-10T12:06:54;11.45;;;4.75;;
31347;SDS011;21711;49.708;18.568;2022-10-10T12:09:31;6.43;;;5.03;;
31347;SDS011;21711;49.708;18.568;2022-10-10T12:14:43;7.22;;;4.47;;
31347;SDS011;21711;49.708;18.568;2022-10-10T12:17:20;7.80;;;4.47;;
31347;SDS011;21711;49.708;18.568;2022-10-10T12:22:42;6.68;;;4.30;;
31347;SDS011;21711;49.708;18.568;2022-10-10T12:28:05;6.95;;;4.13;;
31347;SDS011;21711;49.708;18.568;2022-10-10T12:36:40;9.18;;;4.18;;
31347;SDS011;21711;49.708;18.568;2022-10-10T12:41:53;6.07;;;4.80;;
31347;SDS011;21711;49.708;18.568;2022-10-10T12:44:22;18.15;;;5.13;;
31347;SDS011;21711;49.708;18.568;2022-10-10T12:52:20;5.57;;;4.35;;
31347;SDS011;21711;49.708;18.568;2022-10-10T12:55:29;8.13;;;3.90;;
31347;SDS011;21711;49.708;18.568;2022-10-10T12:58:17;5.38;;;4.30;;
31347;SDS011;21711;49.708;18.568;2022-10-10T13:01:03;7.50;;;4.20;;
31347;SDS011;21711;49.708;18.568;2022-10-10T13:03:47;6.95;;;3.92;;
31347;SDS011;21711;49.708;18.568;2022-10-10T13:09:07;9.02;;;4.57;;
31347;SDS011;21711;49.708;18.568;2022-10-10T13:14:21;12.15;;;7.57;;
31347;SDS011;21711;49.708;18.568;2022-10-10T13:16:50;16.10;;;7.53;;
31347;SDS011;21711;49.708;18.568;2022-10-10T13:19:20;10.23;;;5.90;;
31347;SDS011;21711;49.708;18.568;2022-10-10T13:21:51;7.70;;;4.60;;
31347;SDS011;21711;49.708;18.568;2022-10-10T13:24:26;7.47;;;4.35;;
31347;SDS011;21711;49.708;18.568;2022-10-10T13:26:57;8.10;;;4.07;;
31347;SDS011;21711;49.708;18.568;2022-10-10T13:29:31;7.15;;;4.72;;
31347;SDS011;21711;49.708;18.568;2022-10-10T13:32:11;8.48;;;3.95;;
31347;SDS011;21711;49.708;18.568;2022-10-10T13:35:01;9.15;;;4.00;;
31347;SDS011;21711;49.708;18.568;2022-10-10T13:37:33;7.47;;;4.07;;
31347;SDS011;21711;49.708;18.568;2022-10-10T13:40:01;8.32;;;4.40;;
31347;SDS011;21711;49.708;18.568;2022-10-10T13:55:50;11.93;;;5.30;;
31347;SDS011;21711;49.708;18.568;2022-10-10T13:59:02;8.68;;;5.10;;
31347;SDS011;21711;49.708;18.568;2022-10-10T14:01:41;13.82;;;4.60;;
31347;SDS011;21711;49.708;18.568;2022-10-10T14:06:45;8.70;;;4.45;;
31347;SDS011;21711;49.708;18.568;2022-10-10T14:09:30;9.05;;;4.90;;
31347;SDS011;21711;49.708;18.568;2022-10-10T14:12:03;9.48;;;4.85;;
31347;SDS011;21711;49.708;18.568;2022-10-10T14:14:39;7.50;;;4.25;;
31347;SDS011;21711;49.708;18.568;2022-10-10T14:17:13;5.80;;;3.78;;
31347;SDS011;21711;49.708;18.568;2022-10-10T14:19:42;7.88;;;4.35;;
31347;SDS011;21711;49.708;18.568;2022-10-10T14:22:11;12.15;;;5.32;;
31347;SDS011;21711;49.708;18.568;2022-10-10T14:24:39;14.90;;;5.18;;
31347;SDS011;21711;49.708;18.568;2022-10-10T14:27:20;12.32;;;5.28;;
31347;SDS011;21711;49.708;18.568;2022-10-10T14:29:50;6.90;;;3.95;;
31347;SDS011;21711;49.708;18.568;2022-10-10T14:32:20;7.13;;;3.97;;
31347;SDS011;21711;49.708;18.568;2022-10-10T14:34:48;11.80;;;4.05;;
31347;SDS011;21711;49.708;18.568;2022-10-10T14:37:23;7.93;;;4.13;;
31347;SDS011;21711;49.708;18.568;2022-10-10T14:39:54;8.10;;;4.47;;
31347;SDS011;21711;49.708;18.568;2022-10-10T14:42:22;7.78;;;4.00;;
31347;SDS011;21711;49.708;18.568;2022-10-10T14:44:51;7.78;;;4.07;;
31347;SDS011;21711;49.708;18.568;2022-10-10T14:47:19;13.02;;;4.40;;
31347;SDS011;21711;49.708;18.568;2022-10-10T14:49:49;6.80;;;3.97;;
31347;SDS011;21711;49.708;18.568;2022-10-10T14:52:18;4.47;;;3.70;;
31347;SDS011;21711;49.708;18.568;2022-10-10T14:54:46;5.97;;;3.97;;
31347;SDS011;21711;49.708;18.568;2022-10-10T14:57:13;7.30;;;3.55;;
31347;SDS011;21711;49.708;18.568;2022-10-10T14:59:40;7.55;;;4.10;;
31347;SDS011;21711;49.708;18.568;2022-10-10T15:02:18;9.35;;;4.15;;
31347;SDS011;21711;49.708;18.568;2022-10-10T15:04:47;7.07;;;3.42;;
31347;SDS011;21711;49.708;18.568;2022-10-10T15:07:16;8.50;;;4.05;;
31347;SDS011;21711;49.708;18.568;2022-10-10T15:09:44;10.25;;;4.05;;
31347;SDS011;21711;49.708;18.568;2022-10-10T15:12:34;7.10;;;3.38;;
31347;SDS011;21711;49.708;18.568;2022-10-10T15:15:05;6.65;;;3.20;;
31347;SDS011;21711;49.708;18.568;2022-10-10T15:17:34;7.80;;;3.83;;
31347;SDS011;21711;49.708;18.568;2022-10-10T15:20:05;7.25;;;3.45;;
31347;SDS011;21711;49.708;18.568;2022-10-10T15:22:35;8.70;;;3.47;;
31347;SDS011;21711;49.708;18.568;2022-10-10T15:25:03;5.65;;;4.20;;
31347;SDS011;21711;49.708;18.568;2022-10-10T15:27:31;8.32;;;4.25;;
31347;SDS011;21711;49.708;18.568;2022-10-10T15:29:59;6.30;;;3.80;;
31347;SDS011;21711;49.708;18.568;2022-10-10T15:32:26;8.23;;;3.47;;
31347;SDS011;21711;49.708;18.568;2022-10-10T15:34:54;16.08;;;4.90;;
31347;SDS011;21711;49.708;18.568;2022-10-10T15:37:23;8.95;;;3.90;;
31347;SDS011;21711;49.708;18.568;2022-10-10T15:39:52;6.05;;;3.65;;
31347;SDS011;21711;49.708;18.568;2022-10-10T15:42:20;6.03;;;4.10;;
31347;SDS011;21711;49.708;18.568;2022-10-10T15:44:48;7.05;;;3.95;;
31347;SDS011;21711;49.708;18.568;2022-10-10T15:47:17;8.40;;;3.92;;
31347;SDS011;21711;49.708;18.568;2022-10-10T15:49:46;6.10;;;2.97;;
31347;SDS011;21711;49.708;18.568;2022-10-10T15:52:14;7.35;;;3.80;;
31347;SDS011;21711;49.708;18.568;2022-10-10T15:54:42;6.85;;;3.92;;
31347;SDS011;21711;49.708;18.568;2022-10-10T15:57:14;8.73;;;4.22;;
31347;SDS011;21711;49.708;18.568;2022-10-10T15:59:44;7.15;;;3.78;;
31347;SDS011;21711;49.708;18.568;2022-10-10T16:02:12;9.52;;;4.60;;
31347;SDS011;21711;49.708;18.568;2022-10-10T16:04:40;10.70;;;3.90;;
31347;SDS011;21711;49.708;18.568;2022-10-10T16:07:08;12.90;;;6.18;;
31347;SDS011;21711;49.708;18.568;2022-10-10T16:09:55;16.40;;;5.95;;
31347;SDS011;21711;49.708;18.568;2022-10-10T16:12:24;24.58;;;9.13;;
31347;SDS011;21711;49.708;18.568;2022-10-10T16:14:51;8.65;;;4.95;;
31347;SDS011;21711;49.708;18.568;2022-10-10T16:17:18;7.57;;;4.22;;
31347;SDS011;21711;49.708;18.568;2022-10-10T16:19:49;14.30;;;5.05;;
31347;SDS011;21711;49.708;18.568;2022-10-10T16:22:16;8.13;;;4.38;;
31347;SDS011;21711;49.708;18.568;2022-10-10T16:24:44;12.00;;;3.72;;
31347;SDS011;21711;49.708;18.568;2022-10-10T16:27:29;11.23;;;4.60;;
31347;SDS011;21711;49.708;18.568;2022-10-10T16:29:57;9.77;;;5.03;;
31347;SDS011;21711;49.708;18.568;2022-10-10T16:32:24;10.02;;;4.03;;
31347;SDS011;21711;49.708;18.568;2022-10-10T16:34:51;8.98;;;3.88;;
31347;SDS011;21711;49.708;18.568;2022-10-10T16:37:19;10.27;;;4.88;;
31347;SDS011;21711;49.708;18.568;2022-10-10T16:39:46;5.03;;;3.50;;
31347;SDS011;21711;49.708;18.568;2022-10-10T16:42:13;9.70;;;3.88;;
31347;SDS011;21711;49.708;18.568;2022-10-10T16:44:43;6.85;;;3.45;;
31347;SDS011;21711;49.708;18.568;2022-10-10T16:47:11;8.43;;;4.13;;
31347;SDS011;21711;49.708;18.568;2022-10-10T16:49:38;6.60;;;3.97;;
31347;SDS011;21711;49.708;18.568;2022-10-10T16:52:06;7.10;;;4.10;;
31347;SDS011;21711;49.708;18.568;2022-10-10T16:54:33;8.55;;;4.53;;
31347;SDS011;21711;49.708;18.568;2022-10-10T16:57:01;7.07;;;4.22;;
31347;SDS011;21711;49.708;18.568;2022-10-10T16:59:28;10.63;;;4.50;;
31347;SDS011;21711;49.708;18.568;2022-10-10T17:01:55;15.13;;;4.60;;
31347;SDS011;21711;49.708;18.568;2022-10-10T17:04:23;9.98;;;4.22;;
31347;SDS011;21711;49.708;18.568;2022-10-10T17:06:50;8.55;;;4.45;;
31347;SDS011;21711;49.708;18.568;2022-10-10T17:09:17;8.70;;;4.75;;
31347;SDS011;21711;49.708;18.568;2022-10-10T17:11:44;7.28;;;4.20;;
31347;SDS011;21711;49.708;18.568;2022-10-10T17:14:16;9.40;;;4.15;;
31347;SDS011;21711;49.708;18.568;2022-10-10T17:16:44;10.45;;;4.50;;
31347;SDS011;21711;49.708;18.568;2022-10-10T17:19:31;10.05;;;4.55;;
31347;SDS011;21711;49.708;18.568;2022-10-10T17:21:59;8.38;;;4.32;;
31347;SDS011;21711;49.708;18.568;2022-10-10T17:24:27;7.47;;;4.10;;